Aviation Digital Data Service (ADDS)

Output produced by TAFs form (2113 UTC 30 July 2014)
found at http://aviationweather.gov/adds/tafs/
 
KAEG 301735Z 3018/3118 VRB04KT P6SM FEW070 SCT200 
     FM302100 28010KT P6SM SCT080 
     FM310230 12014G22KT P6SM VCTS BKN070CB 
     FM310500 13012KT P6SM VCSH BKN060 
     FM311000 13009KT P6SM BKN060 
     FM311500 11005KT P6SM BKN060